createdAt,value
2018-06-28T01:07:01.137Z,0.1
2018-06-28T01:09:01.100Z,0.2
2018-06-28T01:10:01.222Z,0.3
2018-06-28T01:12:01.111Z,0.4
2018-06-28T01:13:01.061Z,0.5
2018-06-28T01:15:01.209Z,0.6
2018-06-28T01:16:01.065Z,0.7
2018-06-28T01:18:01.065Z,0.8
2018-06-28T01:19:01.066Z,0.9
2018-06-28T01:21:01.211Z,1.0
2018-06-28T01:25:01.072Z,1.1
2018-06-28T01:27:01.257Z,1.2
2018-06-28T01:28:01.073Z,1.3
2018-06-28T01:30:01.099Z,1.4
2018-06-28T01:31:01.106Z,1.5
2018-06-28T01:32:01.295Z,1.6
2018-06-28T01:33:01.068Z,1.7
2018-06-28T01:34:01.067Z,1.9
2018-06-28T01:35:01.103Z,2.0
2018-06-28T01:37:01.201Z,2.2
2018-06-28T01:38:01.087Z,2.4
2018-06-28T01:39:01.057Z,2.7
2018-06-28T01:40:01.061Z,2.9
2018-06-28T01:41:01.059Z,3.2
2018-06-28T01:42:01.196Z,3.5
2018-06-28T01:43:01.050Z,3.8
2018-06-28T01:44:01.056Z,4.1
2018-06-28T01:45:01.087Z,4.5
2018-06-28T01:46:01.084Z,5.0
2018-06-28T01:47:01.228Z,5.5
2018-06-28T01:48:01.058Z,6.1
2018-06-28T01:49:01.084Z,6.7
2018-06-28T01:50:01.058Z,7.3
2018-06-28T01:51:01.062Z,8.1
2018-06-28T01:52:01.191Z,8.9
2018-06-28T01:53:01.086Z,9.8
2018-06-28T01:54:01.059Z,10.7
2018-06-28T01:55:01.068Z,11.8
2018-06-28T01:56:01.062Z,12.9
2018-06-28T01:57:01.206Z,14.3
2018-06-28T01:58:01.058Z,15.7
2018-06-28T01:59:01.094Z,17.4
2018-06-28T02:00:01.058Z,19.3
2018-06-28T02:01:01.098Z,21.3
2018-06-28T02:02:01.240Z,23.5
2018-06-28T02:03:01.063Z,26.1
2018-06-28T02:04:01.061Z,28.9
2018-06-28T02:05:01.097Z,32.1
2018-06-28T02:06:01.064Z,35.7
2018-06-28T02:07:01.267Z,39.7
2018-06-28T02:08:01.064Z,44.1
2018-06-28T02:09:01.067Z,49.1
2018-06-28T02:10:01.063Z,54.7
2018-06-28T02:11:01.067Z,61.0
2018-06-28T02:12:01.244Z,67.9
2018-06-28T02:13:01.069Z,75.6
2018-06-28T02:14:01.063Z,84.1
2018-06-28T02:15:01.067Z,93.6
2018-06-28T02:16:01.099Z,104.1
2018-06-28T02:17:01.244Z,115.6
2018-06-28T02:18:01.098Z,128.3
2018-06-28T02:19:01.069Z,142.3
2018-06-28T02:20:01.068Z,157.7
2018-06-28T02:21:01.066Z,174.5
2018-06-28T02:22:01.213Z,192.9
2018-06-28T02:23:01.074Z,213.1
2018-06-28T02:24:01.133Z,234.9
2018-06-28T02:25:01.071Z,258.7
2018-06-28T02:26:01.101Z,284.4
2018-06-28T02:27:01.233Z,312.3
2018-06-28T02:28:01.071Z,342.5
2018-06-28T02:29:01.103Z,375.1
2018-06-28T02:31:01.062Z,414.1
2018-06-28T02:32:01.297Z,456.1
2018-06-28T02:33:01.091Z,501.1
2018-06-28T02:34:01.056Z,549.2
2018-06-28T02:35:01.057Z,600.5
2018-06-28T02:36:01.060Z,655.2
2018-06-28T02:37:01.199Z,713.5
2018-06-28T02:38:01.093Z,775.3
2018-06-28T02:39:01.061Z,840.9
2018-06-28T02:40:01.060Z,910.4
2018-06-28T02:41:01.059Z,983.8
2018-06-28T02:42:01.202Z,1061.1
2018-06-28T02:43:01.093Z,1142.2
2018-06-28T02:44:01.058Z,1227.2
2018-06-28T02:45:01.096Z,1316.1
2018-06-28T02:46:01.055Z,1404.9
2018-06-28T02:47:01.197Z,1497.3
2018-06-28T02:48:01.057Z,1593.0
2018-06-28T02:49:01.060Z,1692.1
2018-06-28T02:50:01.060Z,1794.3
2018-06-28T02:51:01.059Z,1899.8
2018-06-28T02:52:01.202Z,2008.5
2018-06-28T02:53:01.059Z,2120.6
2018-06-28T02:54:01.057Z,2236.8
2018-06-28T02:55:01.067Z,2357.4
2018-06-28T02:56:01.068Z,2482.9
2018-06-28T02:57:01.200Z,2612.7
2018-06-28T02:58:01.063Z,2747.5
2018-06-28T02:59:01.075Z,2883.8
2018-06-28T03:00:01.064Z,3017.0
2018-06-28T03:01:01.061Z,3148.9
2018-06-28T03:02:01.234Z,3285.2
2018-06-28T03:03:01.064Z,3426.5
2018-06-28T03:04:01.064Z,3574.3
2018-06-28T03:05:01.065Z,3733.1
2018-06-28T03:06:01.102Z,3904.4
2018-06-28T03:07:01.234Z,4083.5
2018-06-28T03:08:01.062Z,4266.2
2018-06-28T03:09:01.067Z,4453.1
2018-06-28T03:10:01.063Z,4640.9
2018-06-28T03:11:01.095Z,4821.3
2018-06-28T03:12:01.244Z,4992.5
2018-06-28T03:13:01.068Z,5154.7
2018-06-28T03:14:01.066Z,5316.7
2018-06-28T03:15:01.067Z,5489.6
2018-06-28T03:16:01.071Z,5675.6
2018-06-28T03:17:01.242Z,5875.1
2018-06-28T03:18:01.072Z,6092.8
2018-06-28T03:19:01.076Z,6325.0
2018-06-28T03:20:01.107Z,6556.9
2018-06-28T03:21:01.140Z,6765.6
2018-06-28T03:22:01.248Z,6959.5
2018-06-28T03:23:01.099Z,7160.7
2018-06-28T03:24:01.076Z,7369.2
2018-06-28T03:25:01.098Z,7584.7
2018-06-28T03:26:01.125Z,7835.4
2018-06-28T03:27:01.268Z,8118.1
2018-06-28T03:28:01.076Z,8414.5
2018-06-28T03:29:01.071Z,8712.2
2018-06-28T03:30:01.075Z,9010.7
2018-06-28T03:31:01.278Z,9310.5
2018-06-28T03:32:01.246Z,9603.4
2018-06-28T03:33:01.105Z,9900.9
2018-06-28T03:34:01.108Z,10177.4
2018-06-28T03:35:01.108Z,10454.5
2018-06-28T03:36:01.102Z,10747.4
2018-06-28T03:37:01.214Z,11044.8
2018-06-28T03:38:01.084Z,11329.9
2018-06-28T03:39:01.107Z,11623.8
2018-06-28T03:40:01.129Z,11901.5
2018-06-28T03:42:01.192Z,12139.3
2018-06-28T03:43:01.090Z,12369.1
2018-06-28T03:44:01.089Z,12611.4
2018-06-28T03:45:01.090Z,12855.2
2018-06-28T03:46:01.200Z,13098.1
2018-06-28T03:47:01.240Z,13316.7
2018-06-28T03:48:01.054Z,13532.8
2018-06-28T03:49:01.088Z,13725.2
2018-06-28T03:50:01.064Z,13861.9
2018-06-28T03:51:01.090Z,14012.7
2018-06-28T03:52:01.233Z,14182.2
2018-06-28T03:53:01.062Z,14347.9
2018-06-28T03:54:01.059Z,14512.7
2018-06-28T03:55:01.089Z,14661.4
2018-06-28T03:56:01.114Z,14818.2
2018-06-28T03:57:01.360Z,14973.9
2018-06-28T03:58:01.056Z,15104.1
2018-06-28T03:59:01.089Z,15214.9
2018-06-28T04:00:01.096Z,15307.8
2018-06-28T04:01:01.058Z,15381.7
2018-06-28T04:02:01.298Z,15468.7
2018-06-28T04:03:01.094Z,15558.2
2018-06-28T04:04:01.088Z,15651.3
2018-06-28T04:05:01.091Z,15793.0
2018-06-28T04:06:01.090Z,15915.9
2018-06-28T04:07:01.230Z,16038.5
2018-06-28T04:08:01.061Z,16194.7
2018-06-28T04:09:01.058Z,16358.8
2018-06-28T04:10:01.060Z,16521.7
2018-06-28T04:11:01.114Z,16698.5
2018-06-28T04:12:01.200Z,16907.7
2018-06-28T04:13:01.060Z,17151.5
2018-06-28T04:14:01.095Z,17432.1
2018-06-28T04:15:01.060Z,17757.5
2018-06-28T04:16:01.060Z,18111.2
2018-06-28T04:17:01.247Z,18482.4
2018-06-28T04:18:01.059Z,18863.8
2018-06-28T04:19:01.059Z,19255.4
2018-06-28T04:20:01.084Z,19659.7
2018-06-28T04:21:01.061Z,20068.2
2018-06-28T04:22:01.201Z,20483.7
2018-06-28T04:23:01.061Z,20889.1
2018-06-28T04:24:01.063Z,21270.9
2018-06-28T04:25:01.059Z,21647.5
2018-06-28T04:26:01.060Z,22023.4
2018-06-28T04:27:01.282Z,22406.7
2018-06-28T04:28:01.067Z,22782.7
2018-06-28T04:29:01.101Z,23140.3
2018-06-28T04:30:01.102Z,23466.2
2018-06-28T04:31:01.124Z,23792.8
2018-06-28T04:32:01.206Z,24129.3
2018-06-28T04:33:01.071Z,24465.4
2018-06-28T04:34:01.101Z,24809.4
2018-06-28T04:35:01.097Z,25169.3
2018-06-28T04:36:01.096Z,25529.9
2018-06-28T04:37:01.242Z,25859.0
2018-06-28T04:38:01.067Z,26180.5
2018-06-28T04:39:01.103Z,26506.6
2018-06-28T04:40:01.104Z,26830.2
2018-06-28T04:41:01.201Z,27145.2
2018-06-28T04:42:01.208Z,27418.9
2018-06-28T04:43:01.069Z,27656.9
2018-06-28T04:44:01.075Z,27860.7
2018-06-28T04:45:01.076Z,28046.4
2018-06-28T04:46:01.115Z,28222.5
2018-06-28T04:47:01.245Z,28388.3
2018-06-28T04:48:01.065Z,28564.5
2018-06-28T04:49:01.102Z,28730.3
2018-06-28T04:50:01.160Z,28868.2
2018-06-28T04:51:01.172Z,28991.3
2018-06-28T04:52:01.504Z,29119.3
2018-06-28T04:53:01.102Z,29271.6
2018-06-28T04:55:01.092Z,29878.8
2018-06-28T04:56:01.154Z,30472.0
2018-06-28T04:57:01.232Z,30911.3
2018-06-28T04:58:01.090Z,31287.1
2018-06-28T04:59:01.091Z,31550.2
2018-06-28T05:00:01.062Z,31590.2
2018-06-28T05:01:01.106Z,31706.7
2018-06-28T05:02:01.203Z,32272.9
2018-06-28T05:03:01.160Z,33370.6
2018-06-28T05:04:01.067Z,34676.9
2018-06-28T05:05:01.064Z,36247.3
2018-06-28T05:06:01.093Z,37930.5
2018-06-28T05:07:01.434Z,39621.1
2018-06-28T05:08:01.062Z,41349.5
2018-06-28T05:09:01.097Z,43098.1
2018-06-28T05:10:01.095Z,44417.9
2018-06-28T05:11:01.097Z,45749.0
2018-06-28T05:12:01.239Z,47248.1
2018-06-28T05:13:01.061Z,48804.6
2018-06-28T05:14:01.062Z,50502.4
2018-06-28T05:15:01.067Z,52429.1
2018-06-28T05:16:01.094Z,54296.7
2018-06-28T05:17:01.215Z,55712.9
2018-06-28T05:18:01.097Z,56601.7
2018-06-28T05:19:01.063Z,57257.2
2018-06-28T05:20:01.066Z,57632.3
2018-06-28T05:21:01.102Z,57904.3
2018-06-28T05:22:01.210Z,58184.5
2018-06-28T05:23:01.063Z,58428.9
2018-06-28T05:24:01.071Z,58621.4
2018-06-28T05:25:01.071Z,58810.3
2018-06-28T05:26:01.101Z,59034.1
2018-06-28T05:27:01.253Z,59241.5
2018-06-28T05:28:01.104Z,59464.6
2018-06-28T05:29:01.148Z,59668.3
2018-06-28T05:30:01.101Z,59878.3
2018-06-28T05:31:01.104Z,60079.9
2018-06-28T05:32:01.251Z,60302.1
2018-06-28T05:33:01.069Z,60519.5
2018-06-28T05:34:01.151Z,60736.6
2018-06-28T05:35:01.137Z,60928.1
2018-06-28T05:36:01.071Z,61105.1
2018-06-28T05:37:01.249Z,61288.9
2018-06-28T05:38:01.152Z,61456.5
2018-06-28T05:39:01.156Z,61596.8
2018-06-28T05:40:01.076Z,61401.7
2018-06-28T05:41:01.078Z,61435.1
2018-06-28T05:42:01.245Z,61468.3
2018-06-28T05:43:01.105Z,61502.4
2018-06-28T05:44:01.139Z,61511.1
2018-06-28T05:45:01.081Z,61510.0
2018-06-28T05:46:01.105Z,61481.9
2018-06-28T05:47:01.261Z,61385.7
2018-06-28T05:48:01.079Z,61230.5
2018-06-28T05:49:01.140Z,61086.9
2018-06-28T05:50:01.112Z,60958.6
2018-06-28T05:51:01.175Z,60808.8
2018-06-28T05:52:01.379Z,60646.3
2018-06-28T05:53:01.108Z,60476.9
2018-06-28T05:54:01.219Z,60332.6
2018-06-28T05:55:01.115Z,60513.5
2018-06-28T05:56:01.124Z,60417.6
2018-06-28T05:57:01.278Z,60338.0
2018-06-28T05:58:01.116Z,60272.1
2018-06-28T05:59:01.108Z,60249.9
2018-06-28T06:00:01.109Z,60225.6
2018-06-28T06:02:01.235Z,60231.0
2018-06-28T06:03:01.097Z,60271.1
2018-06-28T06:04:01.125Z,60337.3
2018-06-28T06:05:01.100Z,60386.7
2018-06-28T06:06:01.101Z,60447.2
2018-06-28T06:07:01.244Z,60537.5
2018-06-28T06:08:01.108Z,60636.1
2018-06-28T06:09:01.068Z,60770.9
2018-06-28T06:10:01.103Z,60903.5
2018-06-28T06:11:01.068Z,61071.3
2018-06-28T06:12:01.309Z,61285.3
2018-06-28T06:13:01.139Z,61481.9
2018-06-28T06:14:01.101Z,61710.5
2018-06-28T06:15:01.101Z,61945.7
2018-06-28T06:16:01.098Z,62257.4
2018-06-28T06:17:01.311Z,62569.0
2018-06-28T06:18:01.068Z,62879.5
2018-06-28T06:19:01.122Z,63197.2
2018-06-28T06:20:01.073Z,63506.1
2018-06-28T06:21:01.108Z,63807.0
2018-06-28T06:22:01.250Z,64103.4
2018-06-28T06:23:01.077Z,64376.6
2018-06-28T06:24:01.104Z,64622.6
2018-06-28T06:25:01.074Z,64862.2
2018-06-28T06:26:01.169Z,65058.3
2018-06-28T06:27:01.271Z,65219.1
2018-06-28T06:28:01.105Z,65368.4
2018-06-28T06:29:01.074Z,65464.7
2018-06-28T06:30:01.072Z,65535.0
2018-06-28T06:45:01.111Z,65535.0
2018-06-28T07:00:01.099Z,65535.0
2018-06-28T07:15:01.075Z,65535.0
2018-06-28T07:30:01.103Z,65535.0
2018-06-28T07:45:01.118Z,65535.0
2018-06-28T08:00:01.096Z,65535.0
2018-06-28T08:15:01.096Z,65535.0
2018-06-28T08:30:01.106Z,65535.0
2018-06-28T08:45:01.073Z,65535.0
2018-06-28T09:00:06.096Z,65535.0
2018-06-28T09:15:01.300Z,65535.0
2018-06-28T09:30:01.107Z,65535.0
2018-06-28T09:45:01.089Z,65535.0
2018-06-28T10:00:02.158Z,65535.0
2018-06-28T10:15:01.228Z,65535.0
2018-06-28T10:30:01.100Z,65535.0
2018-06-28T10:45:01.060Z,65535.0
2018-06-28T11:00:01.095Z,65535.0
2018-06-28T11:15:01.104Z,65535.0
2018-06-28T11:30:01.092Z,65535.0
2018-06-28T11:45:01.050Z,65535.0
2018-06-28T12:00:01.091Z,65535.0
2018-06-28T12:15:01.097Z,65535.0
2018-06-28T12:30:01.317Z,65535.0
2018-06-28T12:45:01.164Z,65535.0
2018-06-28T13:00:04.443Z,65535.0
2018-06-28T13:15:01.268Z,65535.0
2018-06-28T13:30:01.086Z,65535.0
2018-06-28T13:45:01.100Z,65535.0
2018-06-28T14:00:01.310Z,65535.0
2018-06-28T14:15:05.429Z,65535.0
2018-06-28T14:30:06.308Z,65535.0
2018-06-28T14:45:01.141Z,65535.0
2018-06-28T15:00:02.113Z,65535.0
2018-06-28T15:15:03.286Z,65535.0
2018-06-28T15:30:03.319Z,65535.0
2018-06-28T15:45:02.323Z,65535.0
2018-06-28T16:00:01.311Z,65535.0
2018-06-28T16:15:01.296Z,65535.0
2018-06-28T16:22:06.294Z,64783.9
2018-06-28T16:26:01.094Z,63259.9
2018-06-28T16:27:01.361Z,61435.8
2018-06-28T16:28:01.087Z,60779.1
2018-06-28T16:29:01.056Z,60112.0
2018-06-28T16:30:01.057Z,58401.2
2018-06-28T16:31:01.088Z,56617.5
2018-06-28T16:32:01.191Z,54748.1
2018-06-28T16:33:01.055Z,52804.2
2018-06-28T16:34:01.164Z,50856.7
2018-06-28T16:35:01.089Z,48890.0
2018-06-28T16:36:01.057Z,47178.3
2018-06-28T16:37:01.301Z,45344.2
2018-06-28T16:38:01.088Z,44103.3
2018-06-28T16:39:01.085Z,42077.7
2018-06-28T16:40:01.093Z,40095.7
2018-06-28T16:41:01.103Z,41619.7
2018-06-28T16:42:01.227Z,43443.7
2018-06-28T16:43:01.096Z,44085.5
2018-06-28T16:44:01.059Z,42750.5
2018-06-28T16:45:01.085Z,42370.4
2018-06-28T16:46:01.090Z,42053.6
2018-06-28T16:47:01.232Z,41813.4
2018-06-28T16:48:01.101Z,41637.2
2018-06-28T16:49:01.061Z,41456.3
2018-06-28T16:50:01.094Z,41288.2
2018-06-28T16:51:01.095Z,40855.9
2018-06-28T16:52:01.232Z,40539.3
2018-06-28T16:53:01.167Z,40374.0
2018-06-28T16:54:01.063Z,40235.5
2018-06-28T16:55:01.090Z,40046.9
2018-06-28T16:56:01.094Z,37868.1
2018-06-28T16:57:01.244Z,35683.0
2018-06-28T16:58:01.099Z,33508.5
2018-06-28T16:59:01.150Z,33316.7
2018-06-28T17:00:01.099Z,33208.5
2018-06-28T17:01:01.100Z,33102.5
2018-06-28T17:02:01.298Z,32998.2
2018-06-28T17:03:01.066Z,32897.3
2018-06-28T17:04:01.132Z,32797.7
2018-06-28T17:05:01.097Z,32698.0
2018-06-28T17:06:01.102Z,32598.7
2018-06-28T17:07:01.240Z,32496.9
2018-06-28T17:08:01.128Z,32393.3
2018-06-28T17:10:02.153Z,32279.4
2018-06-28T17:11:01.085Z,32163.7
2018-06-28T17:12:01.222Z,32048.1
2018-06-28T17:13:01.085Z,31931.7
2018-06-28T17:14:01.052Z,31813.7
2018-06-28T17:15:01.089Z,31693.6
2018-06-28T17:16:01.046Z,31572.7
2018-06-28T17:17:01.247Z,31453.5
2018-06-28T17:18:01.090Z,31335.1
2018-06-28T17:19:01.056Z,31217.2
2018-06-28T17:20:01.082Z,31098.9
2018-06-28T17:21:01.117Z,30979.9
2018-06-28T17:22:01.219Z,30863.2
2018-06-28T17:23:01.077Z,30749.3
2018-06-28T17:24:01.056Z,30639.2
2018-06-28T17:25:01.085Z,30541.2
2018-06-28T17:26:01.054Z,30445.5
2018-06-28T17:27:01.213Z,30351.1
2018-06-28T17:28:01.058Z,30256.9
2018-06-28T17:29:01.079Z,30159.1
2018-06-28T17:30:01.079Z,30059.8
2018-06-28T17:31:01.052Z,29957.9
2018-06-28T17:32:01.290Z,29853.8
2018-06-28T17:33:01.080Z,29747.9
2018-06-28T17:34:01.088Z,29641.7
2018-06-28T17:35:01.056Z,29537.0
2018-06-28T17:36:01.058Z,29435.0
2018-06-28T17:37:01.253Z,29462.7
2018-06-28T17:38:01.093Z,29568.7
2018-06-28T17:39:01.086Z,29781.5
2018-06-28T17:40:01.068Z,29928.7
2018-06-28T17:41:01.088Z,29869.1
2018-06-28T17:42:01.236Z,29764.7
2018-06-28T17:43:01.143Z,29690.7
2018-06-28T17:44:01.056Z,29619.0
2018-06-28T17:45:01.062Z,29519.1
2018-06-28T17:46:01.098Z,29421.4
2018-06-28T17:47:01.266Z,29325.8
2018-06-28T17:48:01.059Z,29231.8
2018-06-28T17:49:01.090Z,29137.6
2018-06-28T17:50:01.059Z,29041.9
2018-06-28T17:51:01.067Z,28943.3
2018-06-28T17:52:01.285Z,28714.3
2018-06-28T17:53:01.095Z,28407.0
2018-06-28T17:54:01.067Z,27991.2
2018-06-28T17:55:01.096Z,27639.7
2018-06-28T17:56:01.087Z,27493.8
2018-06-28T17:57:01.267Z,27391.3
2018-06-28T17:58:01.060Z,27257.4
2018-06-28T17:59:01.087Z,27122.2
2018-06-28T18:00:01.089Z,27014.2
2018-06-28T18:01:01.060Z,26902.6
2018-06-28T18:02:01.262Z,26787.5
2018-06-28T18:03:01.100Z,26669.7
2018-06-28T18:05:01.153Z,26541.3
2018-06-28T18:06:01.080Z,26411.6
2018-06-28T18:07:01.256Z,26280.5
2018-06-28T18:08:01.080Z,26147.1
2018-06-28T18:09:01.162Z,26010.4
2018-06-28T18:10:01.075Z,25871.0
2018-06-28T18:11:01.080Z,25729.1
2018-06-28T18:12:01.250Z,25585.5
2018-06-28T18:13:01.081Z,25440.0
2018-06-28T18:14:01.073Z,25292.2
2018-06-28T18:15:01.066Z,25142.3
2018-06-28T18:16:01.087Z,24990.5
2018-06-28T18:17:01.322Z,24837.6
2018-06-28T18:18:01.051Z,24682.3
2018-06-28T18:19:01.141Z,24525.3
2018-06-28T18:20:01.135Z,24375.5
2018-06-28T18:21:01.083Z,24224.4
2018-06-28T18:22:01.296Z,24072.5
2018-06-28T18:23:01.080Z,23920.2
2018-06-28T18:24:01.053Z,23767.7
2018-06-28T18:25:01.052Z,23614.5
2018-06-28T18:26:01.079Z,23460.4
2018-06-28T18:27:01.228Z,23306.1
2018-06-28T18:28:01.055Z,23152.4
2018-06-28T18:29:01.081Z,22998.8
2018-06-28T18:30:01.086Z,22845.2
2018-06-28T18:31:01.086Z,22691.4
2018-06-28T18:32:01.334Z,22536.5
2018-06-28T18:33:01.083Z,22382.4
2018-06-28T18:34:01.086Z,22227.1
2018-06-28T18:35:01.090Z,22069.1
2018-06-28T18:36:01.091Z,21906.6
2018-06-28T18:37:01.259Z,21739.9
2018-06-28T18:38:01.100Z,21569.9
2018-06-28T18:39:01.092Z,21396.0
2018-06-28T18:40:01.091Z,21218.9
2018-06-28T18:41:01.093Z,21045.1
2018-06-28T18:42:01.202Z,20868.6
2018-06-28T18:43:01.097Z,20688.9
2018-06-28T18:44:01.090Z,20506.4
2018-06-28T18:45:01.111Z,20321.8
2018-06-28T18:46:01.090Z,20135.6
2018-06-28T18:47:01.200Z,19949.2
2018-06-28T18:48:01.090Z,19761.8
2018-06-28T18:49:01.061Z,19568.3
2018-06-28T18:50:01.133Z,19360.5
2018-06-28T18:51:01.090Z,19136.3
2018-06-28T18:52:01.203Z,18902.3
2018-06-28T18:53:01.107Z,18663.0
2018-06-28T18:54:01.089Z,18396.5
2018-06-28T18:55:01.140Z,18119.3
2018-06-28T18:56:01.059Z,17828.7
2018-06-28T18:57:01.237Z,17517.6
2018-06-28T18:58:01.091Z,17189.3
2018-06-28T18:59:01.096Z,16848.5
2018-06-28T19:00:01.118Z,16503.2
2018-06-28T19:01:01.090Z,16160.7
2018-06-28T19:02:01.258Z,15821.6
2018-06-28T19:03:01.098Z,15491.1
2018-06-28T19:05:01.048Z,15152.5
2018-06-28T19:06:01.091Z,14823.5
2018-06-28T19:07:01.231Z,14507.3
2018-06-28T19:08:01.053Z,14195.1
2018-06-28T19:09:01.059Z,13882.9
2018-06-28T19:10:01.086Z,13593.2
2018-06-28T19:11:01.047Z,13310.1
2018-06-28T19:12:01.224Z,13029.2
2018-06-28T19:13:01.084Z,12764.1
2018-06-28T19:14:01.087Z,12514.4
2018-06-28T19:15:01.085Z,12275.5
2018-06-28T19:16:01.053Z,12039.6
2018-06-28T19:17:01.221Z,11801.7
2018-06-28T19:18:01.084Z,11561.3
2018-06-28T19:19:01.085Z,11312.9
2018-06-28T19:20:01.088Z,11075.1
2018-06-28T19:21:01.084Z,10835.9
2018-06-28T19:22:01.234Z,10594.7
2018-06-28T19:23:01.092Z,10355.3
2018-06-28T19:24:01.092Z,10117.3
2018-06-28T19:25:01.089Z,9878.0
2018-06-28T19:26:01.065Z,9637.6
2018-06-28T19:27:01.204Z,9398.5
2018-06-28T19:28:01.090Z,9160.7
2018-06-28T19:29:01.063Z,8924.1
2018-06-28T19:30:01.102Z,8692.6
2018-06-28T19:31:01.067Z,8465.0
2018-06-28T19:32:01.267Z,8238.6
2018-06-28T19:33:01.092Z,8012.5
2018-06-28T19:34:01.126Z,7790.3
2018-06-28T19:35:01.093Z,7577.1
2018-06-28T19:36:01.095Z,7375.6
2018-06-28T19:37:01.234Z,7185.5
2018-06-28T19:38:01.109Z,7003.9
2018-06-28T19:39:01.128Z,6828.3
2018-06-28T19:40:01.098Z,6659.3
2018-06-28T19:41:01.101Z,6495.0
2018-06-28T19:42:01.265Z,6332.9
2018-06-28T19:43:01.069Z,6171.3
2018-06-28T19:44:01.132Z,6008.9
2018-06-28T19:45:01.066Z,5843.1
2018-06-28T19:46:01.101Z,5676.2
2018-06-28T19:47:01.247Z,5508.2
2018-06-28T19:48:01.096Z,5340.3
2018-06-28T19:49:01.146Z,5167.8
2018-06-28T19:50:01.104Z,4990.3
2018-06-28T19:51:01.065Z,4808.5
2018-06-28T19:52:01.290Z,4623.9
2018-06-28T19:53:01.064Z,4437.7
2018-06-28T19:54:01.136Z,4252.3
2018-06-28T19:55:01.065Z,4070.3
2018-06-28T19:56:01.102Z,3892.5
2018-06-28T19:57:01.252Z,3720.6
2018-06-28T19:58:01.064Z,3555.4
2018-06-28T20:05:01.122Z,1680.0
2018-06-28T20:06:00.971Z,1628.5
2018-06-28T20:07:00.975Z,1578.7
2018-06-28T20:08:00.976Z,1531.0
2018-06-28T20:09:00.973Z,1485.6
2018-06-28T20:10:01.153Z,1442.0
2018-06-28T20:11:00.976Z,1400.0
2018-06-28T20:12:00.974Z,1359.0
2018-06-28T20:13:00.971Z,1318.9
2018-06-28T20:14:00.973Z,1279.6
2018-06-28T20:15:01.157Z,1241.5
2018-06-28T20:16:00.973Z,1204.5
2018-06-28T20:17:00.976Z,1168.7
2018-06-28T20:18:00.976Z,1134.1
2018-06-28T20:19:00.976Z,1100.7
2018-06-28T20:20:01.214Z,1027.7
2018-06-28T20:21:01.046Z,958.5
2018-06-28T20:22:00.973Z,893.1
2018-06-28T20:23:00.978Z,831.1
2018-06-28T20:24:00.982Z,772.2
2018-06-28T20:25:01.160Z,716.4
2018-06-28T20:26:00.944Z,663.5
2018-06-28T20:27:00.948Z,613.7
2018-06-28T20:30:11.075Z,239.0
2018-06-28T20:31:10.827Z,228.0
2018-06-28T20:50:01.289Z,34.0
2018-06-28T20:51:01.123Z,32.5
2018-06-28T20:52:01.042Z,31.0
2018-06-28T20:53:01.043Z,29.5
2018-06-28T20:54:01.040Z,28.0
2018-06-28T20:55:01.209Z,26.7
2018-06-28T20:56:01.043Z,25.4
2018-06-28T20:57:01.041Z,24.4
2018-06-28T20:58:01.042Z,23.3
2018-06-28T20:59:01.070Z,22.4
2018-06-28T21:00:01.189Z,21.5
2018-06-28T21:01:01.049Z,20.6
2018-06-28T21:02:01.062Z,19.8
2018-06-28T21:03:01.064Z,19.0
2018-06-28T21:04:01.044Z,18.3
2018-06-28T21:05:01.191Z,16.5
2018-06-28T21:06:01.048Z,14.9
2018-06-28T21:07:01.054Z,13.5
2018-06-28T21:08:01.047Z,12.2
2018-06-28T21:09:01.050Z,11.1
2018-06-28T21:10:01.244Z,10.1
2018-06-28T21:11:01.048Z,9.1
2018-06-28T21:12:01.056Z,8.3
2018-06-28T21:13:01.051Z,7.5
2018-06-28T21:14:01.047Z,6.8
2018-06-28T21:15:01.195Z,6.2
2018-06-28T21:16:01.054Z,5.7
2018-06-28T21:17:01.052Z,5.2
2018-06-28T21:18:01.048Z,4.7
2018-06-28T21:19:01.050Z,4.3
2018-06-28T21:20:01.256Z,3.9
2018-06-28T21:21:01.052Z,3.6
2018-06-28T21:22:01.052Z,3.3
2018-06-28T21:23:01.051Z,3.1
2018-06-28T21:24:01.048Z,2.9
2018-06-28T21:25:01.256Z,2.6
2018-06-28T21:26:01.051Z,2.4
2018-06-28T21:27:01.050Z,2.2
2018-06-28T21:28:01.049Z,2.0
2018-06-28T21:29:01.055Z,1.9
2018-06-28T21:30:01.200Z,1.7
2018-06-28T21:31:01.053Z,1.6
2018-06-28T21:32:01.052Z,1.5
2018-06-28T21:33:01.055Z,1.4
2018-06-28T21:34:01.051Z,1.3
2018-06-28T21:36:01.055Z,1.2
2018-06-28T21:37:01.057Z,1.1
2018-06-28T21:39:01.122Z,1.0
2018-06-28T21:44:01.100Z,0.9
2018-06-28T21:45:01.203Z,0.9
2018-06-28T21:46:01.057Z,0.8
2018-06-28T21:47:01.057Z,0.7
2018-06-28T21:49:01.185Z,0.6
2018-06-28T21:50:01.208Z,0.5
2018-06-28T21:52:01.057Z,0.4
2018-06-28T21:53:01.062Z,0.3
2018-06-28T21:55:01.205Z,0.2
2018-06-28T21:56:01.061Z,0.1
2018-06-28T23:08:01.094Z,0.1
2018-06-28T23:10:01.297Z,0.4
2018-06-28T23:11:01.093Z,0.7
2018-06-28T23:12:01.091Z,1.5
2018-06-28T23:13:01.114Z,2.7
2018-06-28T23:14:01.129Z,3.6
2018-06-28T23:15:01.230Z,4.5
2018-06-28T23:16:01.094Z,5.1
2018-06-28T23:17:01.097Z,5.5
2018-06-28T23:18:01.089Z,5.9
2018-06-28T23:19:01.088Z,6.2
2018-06-28T23:20:01.238Z,6.3
2018-06-28T23:21:01.116Z,6.5
2018-06-28T23:24:01.090Z,6.6
2018-06-28T23:25:02.713Z,6.4
2018-06-28T23:26:01.186Z,6.1
2018-06-28T23:27:01.059Z,5.4
2018-06-28T23:28:01.096Z,4.2
2018-06-28T23:29:01.087Z,3.3
2018-06-28T23:30:01.201Z,2.4
2018-06-28T23:31:01.091Z,1.9
2018-06-28T23:32:01.098Z,1.4
2018-06-28T23:33:01.150Z,1.0
2018-06-28T23:34:01.091Z,0.7
2018-06-28T23:35:01.279Z,0.6
2018-06-28T23:36:01.089Z,0.5
2018-06-28T23:37:01.092Z,0.4
2018-06-28T23:38:01.130Z,0.3
2018-06-28T23:39:01.091Z,0.2
2018-06-28T23:40:01.244Z,0.1
